Mt Rainier
Camp Muir
Latest observation 09/03 17:00 PDT
| Time (PDT) | Temp °F 10110' | RH % 10110' | Min mph 10110' | Spd mph 10110' | Gust mph 10110' | Dir ° 10110' | SR W/m² 10110' |
|---|---|---|---|---|---|---|---|
| 09/03 17:00 | 24 | 96 | 0 | 0 | 0 | 212 | 455 |
| 09/03 16:00 | 27 | 99 | 0 | 3 | 8 | 215 | 493 |
| 09/03 15:00 | 26 | 98 | 3 | 6 | 10 | 224 | 442 |
| 09/03 14:00 | 26 | 98 | 4 | 7 | 11 | 208 | 437 |
| 09/03 13:00 | 25 | 97 | 6 | 10 | 13 | 201 | 395 |
| 09/03 12:00 | 25 | 97 | 6 | 10 | 13 | 201 | 332 |
| 09/03 11:00 | 23 | 97 | 9 | 12 | 16 | 201 | 219 |
| 09/03 10:00 | 23 | 97 | 6 | 12 | 16 | 205 | 120 |
| 09/03 09:00 | 22 | 96 | 8 | 13 | 18 | 204 | 91 |
| 09/03 08:00 | 23 | 97 | 8 | 13 | 18 | 198 | 18 |
| 09/03 07:00 | 22 | 96 | 10 | 15 | 20 | 198 | 3 |
| 09/03 06:00 | 22 | 96 | 6 | 15 | 25 | 198 | 3 |
| 09/03 05:00 | 20 | 96 | 8 | 16 | 24 | 198 | 3 |
| 09/03 04:00 | 20 | 96 | 4 | 10 | 22 | 197 | 3 |
| 09/03 03:00 | 20 | 68 | 7 | 13 | 20 | 197 | 3 |
| 09/03 02:00 | 19 | 72 | 5 | 12 | 21 | 196 | 3 |
| 09/03 01:00 | 17 | 81 | 6 | 13 | 23 | 196 | 3 |
| 09/03 00:00 | 18 | 93 | 8 | 13 | 20 | 196 | 3 |
| 09/02 23:00 | 18 | 93 | 8 | 12 | 17 | 196 | 3 |
| 09/02 22:00 | 16 | 92 | 7 | 13 | 19 | 196 | 3 |
| 09/02 21:00 | 17 | 93 | 9 | 15 | 20 | 197 | 20 |
| 09/02 20:00 | 27 | 100 | 9 | 17 | 25 | 197 | 54 |
| 09/02 19:00 | 27 | 100 | 14 | 21 | 28 | 197 | 87 |
| 09/02 18:00 | 27 | 100 | 16 | 24 | 36 | 198 | 93 |
| 09/02 17:00 | 26 | 100 | 15 | 23 | 32 | 198 | 112 |
| 09/02 16:00 | 27 | 100 | 15 | 23 | 31 | 198 | 120 |
| 09/02 15:00 | 26 | 100 | 15 | 22 | 29 | 198 | 138 |
| 09/02 14:00 | 27 | 100 | 13 | 20 | 29 | 198 | 142 |
| 09/02 13:00 | 26 | 100 | 14 | 24 | 37 | 198 | 163 |
| 09/02 12:00 | 26 | 100 | 18 | 27 | 40 | 198 | 119 |
| 09/02 11:00 | 27 | 100 | 18 | 28 | 38 | 206 | 118 |
| 09/02 10:00 | 27 | 100 | 21 | 31 | 44 | 211 | 144 |
| 09/02 09:00 | 26 | 100 | 21 | 30 | 41 | 211 | 118 |
| 09/02 08:00 | 29 | 76 | 17 | 26 | 35 | 215 | 21 |
| 09/02 07:00 | 30 | 65 | 19 | 27 | 36 | 217 | 4 |
| 09/02 06:00 | 32 | 40 | 22 | 32 | 46 | 217 | 4 |
| 09/02 05:00 | 31 | 32 | 21 | 29 | 38 | 220 | 4 |
| 09/02 04:00 | 32 | 64 | 18 | 31 | 45 | 218 | 4 |
| 09/02 03:00 | 34 | 59 | 18 | 29 | 44 | 219 | 4 |
| 09/02 02:00 | 35 | 54 | 18 | 29 | 41 | 216 | 4 |
| 09/02 01:00 | 36 | 55 | 22 | 31 | 44 | 214 | 4 |
| 09/02 00:00 | 36 | 21 | 23 | 33 | 44 | 218 | 4 |
| 09/01 23:00 | 36 | 57 | 23 | 35 | 47 | 219 | 4 |
| 09/01 22:00 | 34 | 72 | 25 | 34 | 45 | 217 | 4 |
| 09/01 21:00 | 35 | 72 | 27 | 34 | 43 | 218 | 23 |
| 09/01 20:00 | 35 | 75 | 23 | 32 | 42 | 215 | 81 |
| 09/01 19:00 | 36 | 76 | 16 | 31 | 42 | 214 | 133 |
| 09/01 18:00 | 37 | 70 | 13 | 25 | 33 | 213 | 184 |
| 09/01 17:00 | 37 | 75 | 16 | 21 | 28 | 211 | 493 |
| 09/01 16:00 | 39 | 76 | 10 | 16 | 22 | 206 | 825 |
| 09/01 15:00 | 39 | 72 | 12 | 15 | 18 | 199 | 859 |
| 09/01 14:00 | 40 | 64 | 9 | 13 | 16 | 198 | 829 |
| 09/01 13:00 | 42 | 49 | 8 | 12 | 16 | 202 | 356 |
| 09/01 12:00 | 42 | 38 | 6 | 10 | 13 | 204 | 254 |
| 09/01 11:00 | 41 | 34 | 6 | 11 | 17 | 209 | 246 |
| 09/01 10:00 | 41 | 35 | 0 | 9 | 16 | 223 | 163 |
| 09/01 09:00 | 41 | 37 | 0 | 8 | 15 | 236 | 80 |
| 09/01 08:00 | 41 | 40 | 3 | 9 | 17 | 238 | 15 |
| 09/01 07:00 | 41 | 41 | 3 | 12 | 19 | 229 | 4 |
| 09/01 06:00 | 41 | 40 | 7 | 16 | 24 | 222 | 4 |
| 09/01 05:00 | 41 | 48 | 11 | 19 | 27 | 228 | 4 |
| 09/01 04:00 | 40 | 54 | 10 | 17 | 24 | 222 | 4 |
| 09/01 03:00 | 39 | 59 | 13 | 19 | 27 | 218 | 4 |
| 09/01 02:00 | 41 | 48 | 18 | 27 | 35 | 218 | 4 |
| 09/01 01:00 | 43 | 50 | 19 | 26 | 35 | 222 | 4 |
| 09/01 00:00 | 43 | 48 | 16 | 28 | 44 | 219 | 4 |
| 08/31 23:00 | 41 | 49 | 16 | 25 | 35 | 218 | 4 |
| 08/31 22:00 | 41 | 50 | 17 | 24 | 32 | 217 | 4 |
| 08/31 21:00 | 41 | 57 | 11 | 20 | 29 | 217 | 15 |
| 08/31 20:00 | 42 | 59 | 11 | 20 | 28 | 217 | 139 |
| 08/31 19:00 | 44 | 54 | 16 | 24 | 32 | 216 | 362 |
| 08/31 18:00 | 43 | 49 | 12 | 20 | 26 | 207 | 339 |
| 08/31 17:00 | 44 | 49 | 11 | 17 | 24 | 210 | 700 |
| 08/31 16:00 | 44 | 40 | 11 | 17 | 23 | 208 | 829 |
| 08/31 15:00 | 43 | 47 | 12 | 17 | 23 | 207 | 869 |
| 08/31 14:00 | 43 | 29 | 11 | 14 | 21 | 212 | 837 |
| 08/31 13:00 | 43 | 57 | 10 | 13 | 17 | 213 | 275 |
| 08/31 12:00 | 41 | 66 | 11 | 15 | 18 | 206 | 58 |
| 08/31 11:00 | 40 | 68 | 9 | 12 | 15 | 200 | 302 |
| 08/31 10:00 | 40 | 67 | 9 | 12 | 16 | 210 | 347 |
| 08/31 09:00 | 40 | 61 | 8 | 13 | 17 | 219 | 108 |
| 08/31 08:00 | 39 | 64 | 10 | 14 | 19 | 219 | 20 |
| 08/31 07:00 | 38 | 68 | 7 | 13 | 17 | 215 | 4 |
| 08/31 06:00 | 37 | 75 | 8 | 13 | 17 | 216 | 4 |
| 08/31 05:00 | 37 | 74 | 8 | 14 | 20 | 216 | 4 |
| 08/31 04:00 | 36 | 77 | 9 | 13 | 18 | 216 | 4 |
| 08/31 03:00 | 37 | 75 | 7 | 12 | 17 | 215 | 4 |
| 08/31 02:00 | 37 | 76 | 0 | 2 | 13 | 288 | 4 |
| 08/31 01:00 | 37 | 74 | 0 | 0 | 0 | 356 | 4 |
| 08/31 00:00 | 37 | 75 | 0 | 1 | 6 | 343 | 4 |
| 08/30 23:00 | 37 | 74 | 0 | 0 | 6 | 349 | 4 |
| 08/30 22:00 | 38 | 72 | 0 | 2 | 7 | 341 | 4 |
| 08/30 21:00 | 38 | 79 | 0 | 1 | 4 | 212 | 13 |
| 08/30 20:00 | 38 | 76 | 0 | 2 | 10 | 202 | 140 |
| 08/30 19:00 | 42 | 66 | 0 | 1 | 9 | 206 | 424 |
| 08/30 18:00 | 45 | 60 | 0 | 1 | 6 | 226 | 351 |
| 08/30 17:00 | 43 | 63 | 0 | 4 | 10 | 186 | 697 |
| 08/30 16:00 | 44 | 61 | 0 | 3 | 8 | 210 | 839 |
| 08/30 15:00 | 41 | 62 | 0 | 2 | 10 | 188 | 888 |
| 08/30 14:00 | 43 | 56 | 0 | 3 | 10 | 198 | 775 |
| 08/30 13:00 | 41 | 54 | 0 | 4 | 14 | 198 | 367 |
| 08/30 12:00 | 40 | 49 | 0 | 4 | 11 | 196 | 285 |
| 08/30 11:00 | 42 | 44 | 0 | 7 | 22 | 227 | 405 |
| 08/30 10:00 | 43 | 39 | 1 | 10 | 25 | 303 | 373 |
| 08/30 09:00 | 39 | 31 | 0 | 4 | 14 | 324 | 119 |
| 08/30 08:00 | 37 | 27 | 0 | 3 | 11 | 249 | 19 |
| 08/30 07:00 | 35 | 28 | 0 | 4 | 14 | 289 | 4 |
| 08/30 06:00 | 35 | 27 | 0 | 3 | 13 | 254 | 4 |
| 08/30 05:00 | 33 | 33 | 0 | 4 | 16 | 236 | 4 |
| 08/30 04:00 | 34 | 35 | 0 | 1 | 6 | 250 | 4 |
| 08/30 03:00 | 33 | 36 | 0 | 1 | 6 | 223 | 4 |
| 08/30 02:00 | 33 | 36 | 0 | 2 | 6 | 299 | 4 |
| 08/30 01:00 | 33 | 40 | 0 | 5 | 16 | 246 | 3 |
| 08/30 00:00 | 30 | 48 | 0 | 7 | 13 | 229 | 3 |
| 08/29 23:00 | 30 | 57 | 0 | 7 | 15 | 220 | 4 |
| 08/29 22:00 | 26 | 83 | 0 | 5 | 16 | 238 | 4 |
| 08/29 21:00 | 32 | 45 | 0 | 8 | 25 | 327 | 12 |
| 08/29 20:00 | 28 | 100 | 0 | 0 | 6 | 302 | 108 |
| 08/29 19:00 | 29 | 94 | 0 | 1 | 6 | 343 | 361 |
| 08/29 18:00 | 31 | 95 | 0 | 1 | 8 | 275 | 432 |
| 08/29 17:00 | 32 | 97 | 0 | 3 | 11 | 202 | 567 |
| 08/29 16:00 | 30 | 98 | 0 | 5 | 15 | 195 | 608 |
| 08/29 15:00 | 28 | 97 | 0 | 8 | 15 | 195 | 721 |
| 08/29 14:00 | 30 | 97 | 0 | 6 | 14 | 191 | 816 |
| 08/29 13:00 | 28 | 97 | 1 | 9 | 18 | 182 | 458 |
| 08/29 12:00 | 26 | 97 | 0 | 4 | 15 | 210 | 378 |
| 08/29 11:00 | 26 | 97 | 0 | 7 | 25 | 184 | 433 |
| 08/29 10:00 | 23 | 91 | 0 | 6 | 22 | 259 | 156 |
| 08/29 09:00 | 23 | 97 | 0 | 13 | 35 | 215 | 42 |
| 08/29 08:00 | 24 | 92 | 0 | 16 | 37 | 217 | 53 |
| 08/29 07:00 | 27 | 65 | 4 | 13 | 25 | 223 | 3 |
| 08/29 06:00 | 27 | 40 | 5 | 16 | 40 | 217 | 4 |
| 08/29 05:00 | 29 | 19 | 13 | 26 | 42 | 221 | 3 |
| 08/29 04:00 | 30 | 18 | 11 | 31 | 46 | 221 | 3 |
| 08/29 03:00 | 30 | 72 | 18 | 32 | 49 | 221 | 3 |
| 08/29 02:00 | 32 | 66 | 25 | 36 | 55 | 216 | 3 |
| 08/29 01:00 | 32 | 68 | 13 | 33 | 47 | 215 | 4 |
| 08/29 00:00 | 35 | 52 | 12 | 31 | 42 | 212 | 4 |
| 08/28 23:00 | 36 | 49 | 20 | 32 | 40 | 217 | 3 |
| 08/28 22:00 | 37 | 49 | 14 | 25 | 37 | 214 | 4 |
| 08/28 21:00 | 36 | 50 | 15 | 21 | 30 | 219 | 14 |
| 08/28 20:00 | 39 | 47 | 16 | 22 | 32 | 221 | 150 |
| 08/28 19:00 | 39 | 73 | 0 | 12 | 27 | 215 | 403 |
| 08/28 18:00 | 34 | 100 | 4 | 10 | 17 | 218 | 408 |
| 08/28 17:00 | 36 | 94 | 4 | 8 | 13 | 218 | 638 |
| 08/28 16:00 | 36 | 92 | 4 | 9 | 16 | 216 | 744 |
| 08/28 15:00 | 38 | 79 | 2 | 6 | 10 | 206 | 871 |
| 08/28 14:00 | 39 | 73 | 5 | 12 | 21 | 203 | 888 |
| 08/28 13:00 | 37 | 59 | 15 | 19 | 32 | 207 | 342 |
| 08/28 12:00 | 39 | 39 | 15 | 23 | 33 | 202 | 66 |
| 08/28 11:00 | 36 | 48 | 12 | 18 | 26 | 207 | 293 |
| 08/28 10:00 | 36 | 43 | 13 | 19 | 26 | 205 | 252 |
| 08/28 09:00 | 36 | 41 | 6 | 16 | 28 | 208 | 129 |
| 08/28 08:00 | 34 | 43 | 4 | 11 | 20 | 202 | 27 |
| 08/28 07:00 | 34 | 44 | 1 | 11 | 29 | 200 | 4 |
| 08/28 06:00 | 34 | 44 | 0 | 16 | 37 | 201 | 4 |
| 08/28 05:00 | 40 | 24 | 14 | 27 | 43 | 213 | 3 |
| 08/28 04:00 | 40 | 26 | 14 | 25 | 39 | 213 | 3 |
| 08/28 03:00 | 39 | 27 | 13 | 24 | 36 | 216 | 3 |
| 08/28 02:00 | 40 | 23 | 13 | 26 | 37 | 215 | 3 |
| 08/28 01:00 | 40 | 26 | 7 | 20 | 42 | 219 | 3 |
| 08/28 00:00 | 38 | 31 | 7 | 17 | 32 | 216 | 3 |
| 08/27 23:00 | 38 | 37 | 5 | 16 | 35 | 208 | 3 |
| 08/27 22:00 | 37 | 47 | 0 | 7 | 21 | 209 | 4 |
| 08/27 21:00 | 37 | 46 | 5 | 18 | 37 | 208 | 15 |
| 08/27 20:00 | 36 | 72 | 12 | 23 | 38 | 204 | 160 |
| 08/27 19:00 | 28 | 100 | 4 | 16 | 30 | 205 | 372 |
| 08/27 18:00 | 23 | 0 | 6 | 13 | 21 | 209 | 241 |

